TimeEDT,TemperatureF,Dew PointF,Humidity,Sea Level PressureIn,VisibilityMPH,Wind Direction,Wind SpeedMPH,Gust SpeedMPH,PrecipitationIn,Events,Conditions,WindDirDegrees,DateUTC
12:53 AM,60.1,57.9,93,30.01,10.0,Calm,Calm,-,N/A,,Overcast,0,2013-07-25 04:53:00
1:53 AM,59.0,57.0,93,30.01,10.0,Calm,Calm,-,N/A,,Clear,0,2013-07-25 05:53:00
2:53 AM,57.0,55.0,93,30.00,10.0,Calm,Calm,-,N/A,,Clear,0,2013-07-25 06:53:00
3:53 AM,57.0,55.0,93,30.00,10.0,Calm,Calm,-,N/A,,Mostly Cloudy,0,2013-07-25 07:53:00
4:53 AM,55.9,54.0,93,30.00,7.0,Calm,Calm,-,N/A,,Partly Cloudy,0,2013-07-25 08:53:00
5:33 AM,55.4,53.6,94,30.02,1.8,Calm,Calm,-,N/A,,Scattered Clouds,0,2013-07-25 09:33:00
5:46 AM,53.6,53.6,100,30.03,0.5,Calm,Calm,-,N/A,Fog,Fog,0,2013-07-25 09:46:00
5:53 AM,54.0,53.1,97,30.02,0.2,Calm,Calm,-,N/A,Fog,Fog,0,2013-07-25 09:53:00
6:02 AM,53.6,53.6,100,30.03,1.0,Calm,Calm,-,N/A,,Mist,0,2013-07-25 10:02:00
6:09 AM,53.6,53.6,100,30.03,3.0,Calm,Calm,-,N/A,,Mostly Cloudy,0,2013-07-25 10:09:00
6:17 AM,53.6,53.6,100,30.03,8.0,Calm,Calm,-,N/A,,Partly Cloudy,0,2013-07-25 10:17:00
6:53 AM,54.0,53.1,97,30.03,8.0,Calm,Calm,-,N/A,,Clear,0,2013-07-25 10:53:00
7:07 AM,55.4,53.6,94,30.05,8.0,Calm,Calm,-,N/A,,Scattered Clouds,0,2013-07-25 11:07:00
7:53 AM,57.0,55.0,93,30.04,9.0,North,4.6,-,N/A,,Mostly Cloudy,350,2013-07-25 11:53:00
8:53 AM,62.1,55.9,80,30.04,10.0,Variable,3.5,-,N/A,,Clear,0,2013-07-25 12:53:00
9:53 AM,64.9,55.9,73,30.04,10.0,Variable,3.5,-,N/A,,Clear,0,2013-07-25 13:53:00
10:53 AM,69.1,55.9,63,30.06,10.0,North,6.9,-,N/A,,Clear,10,2013-07-25 14:53:00
11:53 AM,71.1,55.9,59,30.05,10.0,North,6.9,-,N/A,,Partly Cloudy,10,2013-07-25 15:53:00
12:53 PM,72.0,55.0,55,30.05,10.0,NNW,6.9,-,N/A,,Partly Cloudy,330,2013-07-25 16:53:00
1:53 PM,73.0,54.0,51,30.05,10.0,Variable,4.6,-,N/A,,Scattered Clouds,0,2013-07-25 17:53:00
2:53 PM,73.9,53.1,48,30.05,10.0,Variable,4.6,-,N/A,,Scattered Clouds,0,2013-07-25 18:53:00
3:53 PM,73.9,53.1,48,30.05,10.0,East,6.9,-,N/A,,Clear,90,2013-07-25 19:53:00
4:53 PM,73.0,53.1,49,30.06,10.0,North,6.9,-,N/A,,Scattered Clouds,10,2013-07-25 20:53:00
5:53 PM,75.0,53.1,46,30.06,10.0,NNW,4.6,-,N/A,,Clear,330,2013-07-25 21:53:00
6:53 PM,73.9,53.1,48,30.07,10.0,Variable,4.6,-,N/A,,Partly Cloudy,0,2013-07-25 22:53:00
7:53 PM,71.1,54.0,55,30.07,10.0,North,4.6,-,N/A,,Clear,10,2013-07-25 23:53:00
8:53 PM,69.1,53.1,57,30.07,10.0,Calm,Calm,-,N/A,,Clear,0,2013-07-26 00:53:00
9:53 PM,64.9,55.9,73,30.10,10.0,Calm,Calm,-,N/A,,Clear,0,2013-07-26 01:53:00
10:53 PM,61.0,55.0,81,30.11,10.0,Calm,Calm,-,N/A,,Clear,0,2013-07-26 02:53:00
11:53 PM,61.0,55.9,83,30.11,10.0,Calm,Calm,-,N/A,,Clear,0,2013-07-26 03:53:00